sensor_id;sensor_type;location;lat;lon;timestamp;P1;durP1;ratioP1;P2;durP2;ratioP2
11675;SDS011;5894;42.768;23.404;2023-04-23T00:01:21;12.40;;;7.80;;
11675;SDS011;5894;42.768;23.404;2023-04-23T00:03:52;11.23;;;7.33;;
11675;SDS011;5894;42.768;23.404;2023-04-23T00:06:22;10.83;;;6.90;;
11675;SDS011;5894;42.768;23.404;2023-04-23T00:08:52;10.50;;;7.27;;
11675;SDS011;5894;42.768;23.404;2023-04-23T00:11:20;10.47;;;6.67;;
11675;SDS011;5894;42.768;23.404;2023-04-23T00:13:47;68.37;;;32.50;;
11675;SDS011;5894;42.768;23.404;2023-04-23T00:16:15;50.50;;;26.03;;
11675;SDS011;5894;42.768;23.404;2023-04-23T00:18:42;30.00;;;16.70;;
11675;SDS011;5894;42.768;23.404;2023-04-23T00:21:09;12.57;;;8.47;;
11675;SDS011;5894;42.768;23.404;2023-04-23T00:23:37;8.63;;;6.30;;
11675;SDS011;5894;42.768;23.404;2023-04-23T00:26:04;7.40;;;5.60;;
11675;SDS011;5894;42.768;23.404;2023-04-23T00:28:31;9.50;;;6.73;;
11675;SDS011;5894;42.768;23.404;2023-04-23T00:30:58;9.83;;;7.13;;
11675;SDS011;5894;42.768;23.404;2023-04-23T00:33:25;10.77;;;6.43;;
11675;SDS011;5894;42.768;23.404;2023-04-23T00:35:52;9.50;;;6.67;;
11675;SDS011;5894;42.768;23.404;2023-04-23T00:38:18;9.37;;;6.30;;
11675;SDS011;5894;42.768;23.404;2023-04-23T00:40:47;7.40;;;5.70;;
11675;SDS011;5894;42.768;23.404;2023-04-23T00:43:14;10.87;;;6.43;;
11675;SDS011;5894;42.768;23.404;2023-04-23T00:45:41;9.03;;;8.00;;
11675;SDS011;5894;42.768;23.404;2023-04-23T00:48:08;7.13;;;5.00;;
11675;SDS011;5894;42.768;23.404;2023-04-23T00:50:37;5.33;;;4.50;;
11675;SDS011;5894;42.768;23.404;2023-04-23T00:53:04;5.63;;;4.80;;
11675;SDS011;5894;42.768;23.404;2023-04-23T00:55:31;7.07;;;5.00;;
11675;SDS011;5894;42.768;23.404;2023-04-23T00:58:00;6.33;;;4.80;;
11675;SDS011;5894;42.768;23.404;2023-04-23T01:00:27;7.80;;;4.70;;
11675;SDS011;5894;42.768;23.404;2023-04-23T01:02:54;5.83;;;4.60;;
11675;SDS011;5894;42.768;23.404;2023-04-23T01:05:22;5.00;;;4.40;;
11675;SDS011;5894;42.768;23.404;2023-04-23T01:07:49;6.80;;;5.20;;
11675;SDS011;5894;42.768;23.404;2023-04-23T01:10:17;5.37;;;4.83;;
11675;SDS011;5894;42.768;23.404;2023-04-23T01:12:45;5.43;;;4.00;;
11675;SDS011;5894;42.768;23.404;2023-04-23T01:15:15;3.60;;;3.30;;
11675;SDS011;5894;42.768;23.404;2023-04-23T01:17:42;5.70;;;3.60;;
11675;SDS011;5894;42.768;23.404;2023-04-23T01:20:09;4.73;;;3.90;;
11675;SDS011;5894;42.768;23.404;2023-04-23T01:22:38;3.30;;;2.80;;
11675;SDS011;5894;42.768;23.404;2023-04-23T01:25:05;5.80;;;3.63;;
11675;SDS011;5894;42.768;23.404;2023-04-23T01:27:34;6.30;;;4.40;;
11675;SDS011;5894;42.768;23.404;2023-04-23T01:30:02;5.80;;;4.30;;
11675;SDS011;5894;42.768;23.404;2023-04-23T01:32:30;4.87;;;4.20;;
11675;SDS011;5894;42.768;23.404;2023-04-23T01:34:57;9.37;;;5.90;;
11675;SDS011;5894;42.768;23.404;2023-04-23T01:37:25;14.33;;;7.27;;
11675;SDS011;5894;42.768;23.404;2023-04-23T01:39:54;12.23;;;6.47;;
11675;SDS011;5894;42.768;23.404;2023-04-23T01:42:21;13.27;;;6.47;;
11675;SDS011;5894;42.768;23.404;2023-04-23T01:44:50;7.50;;;4.60;;
11675;SDS011;5894;42.768;23.404;2023-04-23T01:47:16;9.60;;;4.67;;
11675;SDS011;5894;42.768;23.404;2023-04-23T01:49:45;7.53;;;4.97;;
11675;SDS011;5894;42.768;23.404;2023-04-23T01:52:12;6.77;;;5.03;;
11675;SDS011;5894;42.768;23.404;2023-04-23T01:54:39;7.47;;;5.37;;
11675;SDS011;5894;42.768;23.404;2023-04-23T01:57:08;8.53;;;5.77;;
11675;SDS011;5894;42.768;23.404;2023-04-23T01:59:35;9.47;;;6.07;;
11675;SDS011;5894;42.768;23.404;2023-04-23T02:02:02;13.43;;;6.83;;
11675;SDS011;5894;42.768;23.404;2023-04-23T02:04:29;14.57;;;6.87;;
11675;SDS011;5894;42.768;23.404;2023-04-23T02:06:56;14.27;;;6.30;;
11675;SDS011;5894;42.768;23.404;2023-04-23T02:09:23;9.97;;;5.43;;
11675;SDS011;5894;42.768;23.404;2023-04-23T02:11:50;11.27;;;6.57;;
11675;SDS011;5894;42.768;23.404;2023-04-23T02:14:18;10.57;;;6.70;;
11675;SDS011;5894;42.768;23.404;2023-04-23T02:16:45;12.23;;;7.20;;
11675;SDS011;5894;42.768;23.404;2023-04-23T02:19:12;12.33;;;6.97;;
11675;SDS011;5894;42.768;23.404;2023-04-23T02:21:40;11.30;;;7.40;;
11675;SDS011;5894;42.768;23.404;2023-04-23T02:24:07;9.10;;;6.17;;
11675;SDS011;5894;42.768;23.404;2023-04-23T02:26:35;11.53;;;6.80;;
11675;SDS011;5894;42.768;23.404;2023-04-23T02:29:02;9.80;;;6.13;;
11675;SDS011;5894;42.768;23.404;2023-04-23T02:31:30;9.03;;;5.70;;
11675;SDS011;5894;42.768;23.404;2023-04-23T02:33:57;10.30;;;6.67;;
11675;SDS011;5894;42.768;23.404;2023-04-23T02:36:24;9.73;;;5.90;;
11675;SDS011;5894;42.768;23.404;2023-04-23T02:38:52;11.03;;;6.50;;
11675;SDS011;5894;42.768;23.404;2023-04-23T02:41:19;7.97;;;5.50;;
11675;SDS011;5894;42.768;23.404;2023-04-23T02:43:46;10.10;;;6.33;;
11675;SDS011;5894;42.768;23.404;2023-04-23T02:46:13;8.53;;;5.40;;
11675;SDS011;5894;42.768;23.404;2023-04-23T02:48:41;7.10;;;5.53;;
11675;SDS011;5894;42.768;23.404;2023-04-23T02:51:09;8.07;;;5.80;;
11675;SDS011;5894;42.768;23.404;2023-04-23T02:53:37;9.77;;;5.70;;
11675;SDS011;5894;42.768;23.404;2023-04-23T02:56:04;6.27;;;5.50;;
11675;SDS011;5894;42.768;23.404;2023-04-23T02:58:33;7.47;;;5.47;;
11675;SDS011;5894;42.768;23.404;2023-04-23T03:01:01;6.57;;;5.30;;
11675;SDS011;5894;42.768;23.404;2023-04-23T03:03:31;6.70;;;4.97;;
11675;SDS011;5894;42.768;23.404;2023-04-23T03:06:02;7.43;;;5.83;;
11675;SDS011;5894;42.768;23.404;2023-04-23T03:08:30;6.33;;;5.40;;
11675;SDS011;5894;42.768;23.404;2023-04-23T03:10:58;8.77;;;6.30;;
11675;SDS011;5894;42.768;23.404;2023-04-23T03:13:25;7.60;;;5.90;;
11675;SDS011;5894;42.768;23.404;2023-04-23T03:15:52;7.33;;;5.47;;
11675;SDS011;5894;42.768;23.404;2023-04-23T03:18:21;7.57;;;5.50;;
11675;SDS011;5894;42.768;23.404;2023-04-23T03:20:51;7.37;;;5.57;;
11675;SDS011;5894;42.768;23.404;2023-04-23T03:23:19;10.03;;;6.10;;
11675;SDS011;5894;42.768;23.404;2023-04-23T03:25:47;8.30;;;5.47;;
11675;SDS011;5894;42.768;23.404;2023-04-23T03:28:14;9.10;;;5.63;;
11675;SDS011;5894;42.768;23.404;2023-04-23T03:30:41;7.43;;;5.30;;
11675;SDS011;5894;42.768;23.404;2023-04-23T03:33:08;5.77;;;4.80;;
11675;SDS011;5894;42.768;23.404;2023-04-23T03:35:35;6.73;;;5.60;;
11675;SDS011;5894;42.768;23.404;2023-04-23T03:38:06;9.03;;;6.07;;
11675;SDS011;5894;42.768;23.404;2023-04-23T03:40:36;7.87;;;6.10;;
11675;SDS011;5894;42.768;23.404;2023-04-23T03:43:05;7.30;;;5.73;;
11675;SDS011;5894;42.768;23.404;2023-04-23T03:45:52;8.30;;;5.73;;
11675;SDS011;5894;42.768;23.404;2023-04-23T03:48:19;7.43;;;5.73;;
11675;SDS011;5894;42.768;23.404;2023-04-23T03:50:46;9.57;;;6.00;;
11675;SDS011;5894;42.768;23.404;2023-04-23T03:53:31;8.60;;;6.00;;
11675;SDS011;5894;42.768;23.404;2023-04-23T03:56:18;12.30;;;6.00;;
11675;SDS011;5894;42.768;23.404;2023-04-23T03:58:54;10.03;;;5.73;;
11675;SDS011;5894;42.768;23.404;2023-04-23T04:01:21;10.73;;;6.33;;
11675;SDS011;5894;42.768;23.404;2023-04-23T04:03:49;11.53;;;8.40;;
11675;SDS011;5894;42.768;23.404;2023-04-23T04:06:15;17.07;;;10.90;;
11675;SDS011;5894;42.768;23.404;2023-04-23T04:08:42;9.73;;;7.47;;
11675;SDS011;5894;42.768;23.404;2023-04-23T04:11:09;10.57;;;7.43;;
11675;SDS011;5894;42.768;23.404;2023-04-23T04:13:37;12.63;;;8.37;;
11675;SDS011;5894;42.768;23.404;2023-04-23T04:16:04;20.93;;;17.80;;
11675;SDS011;5894;42.768;23.404;2023-04-23T04:18:31;16.73;;;12.67;;
11675;SDS011;5894;42.768;23.404;2023-04-23T04:20:58;13.17;;;7.50;;
11675;SDS011;5894;42.768;23.404;2023-04-23T04:23:25;11.30;;;6.67;;
11675;SDS011;5894;42.768;23.404;2023-04-23T04:25:52;9.13;;;5.70;;
11675;SDS011;5894;42.768;23.404;2023-04-23T04:28:20;8.10;;;5.50;;
11675;SDS011;5894;42.768;23.404;2023-04-23T04:30:50;7.43;;;5.93;;
11675;SDS011;5894;42.768;23.404;2023-04-23T04:33:18;7.83;;;6.40;;
11675;SDS011;5894;42.768;23.404;2023-04-23T04:35:45;11.37;;;8.20;;
11675;SDS011;5894;42.768;23.404;2023-04-23T04:38:13;9.37;;;7.27;;
11675;SDS011;5894;42.768;23.404;2023-04-23T04:40:41;7.90;;;6.57;;
11675;SDS011;5894;42.768;23.404;2023-04-23T04:43:08;9.33;;;5.80;;
11675;SDS011;5894;42.768;23.404;2023-04-23T04:45:34;8.93;;;5.33;;
11675;SDS011;5894;42.768;23.404;2023-04-23T04:48:03;7.47;;;5.90;;
11675;SDS011;5894;42.768;23.404;2023-04-23T04:50:30;15.07;;;7.57;;
11675;SDS011;5894;42.768;23.404;2023-04-23T04:52:56;13.70;;;7.80;;
11675;SDS011;5894;42.768;23.404;2023-04-23T04:55:23;14.70;;;7.77;;
11675;SDS011;5894;42.768;23.404;2023-04-23T04:57:51;12.93;;;7.97;;
11675;SDS011;5894;42.768;23.404;2023-04-23T05:00:21;31.70;;;18.57;;
11675;SDS011;5894;42.768;23.404;2023-04-23T05:02:49;22.10;;;13.47;;
11675;SDS011;5894;42.768;23.404;2023-04-23T05:05:18;13.23;;;9.30;;
11675;SDS011;5894;42.768;23.404;2023-04-23T05:07:46;11.97;;;8.37;;
11675;SDS011;5894;42.768;23.404;2023-04-23T05:10:14;10.43;;;8.23;;
11675;SDS011;5894;42.768;23.404;2023-04-23T05:12:41;10.00;;;7.80;;
11675;SDS011;5894;42.768;23.404;2023-04-23T05:15:08;10.33;;;8.93;;
11675;SDS011;5894;42.768;23.404;2023-04-23T05:17:37;11.90;;;9.63;;
11675;SDS011;5894;42.768;23.404;2023-04-23T05:20:04;13.57;;;11.17;;
11675;SDS011;5894;42.768;23.404;2023-04-23T05:22:36;13.57;;;11.33;;
11675;SDS011;5894;42.768;23.404;2023-04-23T05:25:04;13.03;;;11.13;;
11675;SDS011;5894;42.768;23.404;2023-04-23T05:27:32;25.43;;;15.60;;
11675;SDS011;5894;42.768;23.404;2023-04-23T05:29:59;25.93;;;17.10;;
11675;SDS011;5894;42.768;23.404;2023-04-23T05:32:26;30.57;;;21.57;;
11675;SDS011;5894;42.768;23.404;2023-04-23T05:34:53;32.40;;;21.57;;
11675;SDS011;5894;42.768;23.404;2023-04-23T05:37:20;24.37;;;18.83;;
11675;SDS011;5894;42.768;23.404;2023-04-23T05:39:48;17.53;;;14.10;;
11675;SDS011;5894;42.768;23.404;2023-04-23T05:42:15;16.20;;;13.10;;
11675;SDS011;5894;42.768;23.404;2023-04-23T05:44:42;16.50;;;14.13;;
11675;SDS011;5894;42.768;23.404;2023-04-23T05:47:09;15.73;;;13.17;;
11675;SDS011;5894;42.768;23.404;2023-04-23T05:49:36;12.57;;;10.30;;
11675;SDS011;5894;42.768;23.404;2023-04-23T05:52:03;13.43;;;10.77;;
11675;SDS011;5894;42.768;23.404;2023-04-23T05:54:30;14.90;;;10.10;;
11675;SDS011;5894;42.768;23.404;2023-04-23T05:56:58;11.73;;;9.97;;
11675;SDS011;5894;42.768;23.404;2023-04-23T05:59:25;13.03;;;10.40;;
11675;SDS011;5894;42.768;23.404;2023-04-23T06:01:51;11.23;;;8.93;;
11675;SDS011;5894;42.768;23.404;2023-04-23T06:04:18;11.53;;;8.80;;
11675;SDS011;5894;42.768;23.404;2023-04-23T06:06:45;11.30;;;9.37;;
11675;SDS011;5894;42.768;23.404;2023-04-23T06:09:12;9.60;;;8.60;;
11675;SDS011;5894;42.768;23.404;2023-04-23T06:11:39;10.02;;;7.43;;
11675;SDS011;5894;42.768;23.404;2023-04-23T06:14:07;9.73;;;8.02;;
11675;SDS011;5894;42.768;23.404;2023-04-23T06:16:34;10.25;;;7.50;;
11675;SDS011;5894;42.768;23.404;2023-04-23T06:19:02;8.93;;;7.20;;
11675;SDS011;5894;42.768;23.404;2023-04-23T06:21:29;8.38;;;6.97;;
11675;SDS011;5894;42.768;23.404;2023-04-23T06:23:56;8.45;;;6.57;;
11675;SDS011;5894;42.768;23.404;2023-04-23T06:26:23;8.13;;;6.40;;
11675;SDS011;5894;42.768;23.404;2023-04-23T06:28:53;7.07;;;6.38;;
11675;SDS011;5894;42.768;23.404;2023-04-23T06:31:38;9.77;;;6.13;;
11675;SDS011;5894;42.768;23.404;2023-04-23T06:34:06;8.38;;;6.47;;
11675;SDS011;5894;42.768;23.404;2023-04-23T06:36:32;7.38;;;6.63;;
11675;SDS011;5894;42.768;23.404;2023-04-23T06:38:59;9.75;;;6.65;;
11675;SDS011;5894;42.768;23.404;2023-04-23T06:41:26;12.82;;;7.13;;
11675;SDS011;5894;42.768;23.404;2023-04-23T06:44:07;10.70;;;6.55;;
11675;SDS011;5894;42.768;23.404;2023-04-23T06:46:39;8.98;;;6.90;;
11675;SDS011;5894;42.768;23.404;2023-04-23T06:49:06;11.52;;;6.47;;
11675;SDS011;5894;42.768;23.404;2023-04-23T06:51:33;10.05;;;5.65;;
11675;SDS011;5894;42.768;23.404;2023-04-23T06:54:00;7.95;;;5.78;;
11675;SDS011;5894;42.768;23.404;2023-04-23T06:56:27;9.07;;;5.60;;
11675;SDS011;5894;42.768;23.404;2023-04-23T06:58:54;9.43;;;6.70;;
11675;SDS011;5894;42.768;23.404;2023-04-23T07:01:21;7.03;;;5.20;;
11675;SDS011;5894;42.768;23.404;2023-04-23T07:03:49;8.02;;;5.57;;
11675;SDS011;5894;42.768;23.404;2023-04-23T07:06:18;6.95;;;5.68;;
11675;SDS011;5894;42.768;23.404;2023-04-23T07:08:45;9.07;;;5.55;;
11675;SDS011;5894;42.768;23.404;2023-04-23T07:11:13;7.32;;;5.53;;
11675;SDS011;5894;42.768;23.404;2023-04-23T07:13:40;7.20;;;5.78;;
11675;SDS011;5894;42.768;23.404;2023-04-23T07:16:07;22.88;;;13.93;;
11675;SDS011;5894;42.768;23.404;2023-04-23T07:18:34;11.00;;;8.02;;
11675;SDS011;5894;42.768;23.404;2023-04-23T07:21:02;7.28;;;5.93;;
11675;SDS011;5894;42.768;23.404;2023-04-23T07:23:29;8.32;;;5.30;;
11675;SDS011;5894;42.768;23.404;2023-04-23T07:25:56;7.75;;;5.68;;
11675;SDS011;5894;42.768;23.404;2023-04-23T07:28:23;6.90;;;6.00;;
11675;SDS011;5894;42.768;23.404;2023-04-23T07:30:50;7.70;;;6.13;;
11675;SDS011;5894;42.768;23.404;2023-04-23T07:33:16;8.38;;;6.35;;
11675;SDS011;5894;42.768;23.404;2023-04-23T07:35:44;8.70;;;6.05;;
11675;SDS011;5894;42.768;23.404;2023-04-23T07:38:12;8.85;;;5.88;;
11675;SDS011;5894;42.768;23.404;2023-04-23T07:40:38;10.15;;;5.75;;
11675;SDS011;5894;42.768;23.404;2023-04-23T07:43:05;7.55;;;6.07;;
11675;SDS011;5894;42.768;23.404;2023-04-23T07:45:33;9.23;;;6.97;;
11675;SDS011;5894;42.768;23.404;2023-04-23T07:47:59;7.88;;;6.07;;
11675;SDS011;5894;42.768;23.404;2023-04-23T07:50:26;7.15;;;5.80;;
11675;SDS011;5894;42.768;23.404;2023-04-23T07:52:54;8.07;;;5.85;;
11675;SDS011;5894;42.768;23.404;2023-04-23T07:55:22;8.55;;;6.40;;
11675;SDS011;5894;42.768;23.404;2023-04-23T07:57:49;7.57;;;6.30;;
11675;SDS011;5894;42.768;23.404;2023-04-23T08:00:16;7.07;;;5.88;;
11675;SDS011;5894;42.768;23.404;2023-04-23T08:02:43;9.73;;;6.20;;
11675;SDS011;5894;42.768;23.404;2023-04-23T08:05:10;8.77;;;6.70;;
11675;SDS011;5894;42.768;23.404;2023-04-23T08:07:37;7.75;;;6.18;;
11675;SDS011;5894;42.768;23.404;2023-04-23T08:10:04;9.82;;;6.07;;
11675;SDS011;5894;42.768;23.404;2023-04-23T08:12:34;6.30;;;5.60;;
11675;SDS011;5894;42.768;23.404;2023-04-23T08:15:01;7.32;;;5.90;;
11675;SDS011;5894;42.768;23.404;2023-04-23T08:17:35;6.57;;;5.88;;
11675;SDS011;5894;42.768;23.404;2023-04-23T08:20:02;8.27;;;5.82;;
11675;SDS011;5894;42.768;23.404;2023-04-23T08:22:30;8.30;;;5.95;;
11675;SDS011;5894;42.768;23.404;2023-04-23T08:24:57;6.63;;;6.00;;
11675;SDS011;5894;42.768;23.404;2023-04-23T08:27:24;43.22;;;22.80;;
11675;SDS011;5894;42.768;23.404;2023-04-23T08:29:52;7.63;;;6.50;;
11675;SDS011;5894;42.768;23.404;2023-04-23T08:32:19;8.50;;;6.20;;
11675;SDS011;5894;42.768;23.404;2023-04-23T08:34:46;6.57;;;5.63;;
11675;SDS011;5894;42.768;23.404;2023-04-23T08:37:13;6.63;;;5.53;;
11675;SDS011;5894;42.768;23.404;2023-04-23T08:39:39;8.02;;;5.57;;
11675;SDS011;5894;42.768;23.404;2023-04-23T08:42:09;9.73;;;6.03;;
11675;SDS011;5894;42.768;23.404;2023-04-23T08:44:40;7.85;;;6.07;;
11675;SDS011;5894;42.768;23.404;2023-04-23T08:47:10;9.23;;;6.50;;
11675;SDS011;5894;42.768;23.404;2023-04-23T08:49:40;5.95;;;5.35;;
11675;SDS011;5894;42.768;23.404;2023-04-23T08:52:09;7.75;;;5.65;;
11675;SDS011;5894;42.768;23.404;2023-04-23T08:54:45;8.88;;;6.07;;
11675;SDS011;5894;42.768;23.404;2023-04-23T08:57:15;7.05;;;5.75;;
11675;SDS011;5894;42.768;23.404;2023-04-23T08:59:42;10.02;;;6.18;;
11675;SDS011;5894;42.768;23.404;2023-04-23T09:02:12;8.63;;;5.50;;
11675;SDS011;5894;42.768;23.404;2023-04-23T09:04:40;7.65;;;5.47;;
11675;SDS011;5894;42.768;23.404;2023-04-23T09:07:06;11.18;;;7.55;;
11675;SDS011;5894;42.768;23.404;2023-04-23T09:09:36;7.47;;;5.95;;
11675;SDS011;5894;42.768;23.404;2023-04-23T09:12:04;6.90;;;5.95;;
11675;SDS011;5894;42.768;23.404;2023-04-23T09:14:32;8.05;;;5.93;;
11675;SDS011;5894;42.768;23.404;2023-04-23T09:16:59;9.98;;;6.20;;
11675;SDS011;5894;42.768;23.404;2023-04-23T09:19:28;6.88;;;5.53;;
11675;SDS011;5894;42.768;23.404;2023-04-23T09:21:56;7.97;;;5.40;;
11675;SDS011;5894;42.768;23.404;2023-04-23T09:24:25;5.90;;;5.30;;
11675;SDS011;5894;42.768;23.404;2023-04-23T09:26:52;6.25;;;5.65;;
11675;SDS011;5894;42.768;23.404;2023-04-23T09:29:21;9.35;;;5.90;;
11675;SDS011;5894;42.768;23.404;2023-04-23T09:31:49;7.82;;;5.25;;
11675;SDS011;5894;42.768;23.404;2023-04-23T09:34:17;5.82;;;5.13;;
11675;SDS011;5894;42.768;23.404;2023-04-23T09:36:48;6.68;;;5.60;;
11675;SDS011;5894;42.768;23.404;2023-04-23T09:39:16;6.75;;;5.15;;
11675;SDS011;5894;42.768;23.404;2023-04-23T09:41:44;6.40;;;5.32;;
11675;SDS011;5894;42.768;23.404;2023-04-23T09:44:11;5.40;;;4.78;;
11675;SDS011;5894;42.768;23.404;2023-04-23T09:46:43;4.93;;;4.50;;
11675;SDS011;5894;42.768;23.404;2023-04-23T09:49:11;6.88;;;4.70;;
11675;SDS011;5894;42.768;23.404;2023-04-23T09:51:38;7.72;;;4.72;;
11675;SDS011;5894;42.768;23.404;2023-04-23T09:54:12;7.20;;;5.22;;
11675;SDS011;5894;42.768;23.404;2023-04-23T09:56:40;8.35;;;5.20;;
11675;SDS011;5894;42.768;23.404;2023-04-23T09:59:21;6.55;;;4.32;;
11675;SDS011;5894;42.768;23.404;2023-04-23T10:01:48;5.53;;;4.38;;
11675;SDS011;5894;42.768;23.404;2023-04-23T10:04:16;8.73;;;4.90;;
11675;SDS011;5894;42.768;23.404;2023-04-23T10:06:45;5.60;;;4.45;;
11675;SDS011;5894;42.768;23.404;2023-04-23T10:09:13;6.47;;;4.40;;
11675;SDS011;5894;42.768;23.404;2023-04-23T10:11:42;5.82;;;4.20;;
11675;SDS011;5894;42.768;23.404;2023-04-23T10:14:09;4.85;;;4.20;;
11675;SDS011;5894;42.768;23.404;2023-04-23T10:16:36;6.75;;;3.65;;
11675;SDS011;5894;42.768;23.404;2023-04-23T10:19:05;5.45;;;3.90;;
11675;SDS011;5894;42.768;23.404;2023-04-23T10:21:35;4.60;;;3.72;;
11675;SDS011;5894;42.768;23.404;2023-04-23T10:24:03;5.53;;;3.65;;
11675;SDS011;5894;42.768;23.404;2023-04-23T10:26:33;4.97;;;3.20;;
11675;SDS011;5894;42.768;23.404;2023-04-23T10:29:03;6.03;;;3.80;;
11675;SDS011;5894;42.768;23.404;2023-04-23T10:31:34;4.80;;;3.65;;
11675;SDS011;5894;42.768;23.404;2023-04-23T10:34:02;4.03;;;3.17;;
11675;SDS011;5894;42.768;23.404;2023-04-23T10:36:30;4.15;;;3.40;;
11675;SDS011;5894;42.768;23.404;2023-04-23T10:39:01;8.63;;;3.88;;
11675;SDS011;5894;42.768;23.404;2023-04-23T10:41:36;3.97;;;3.65;;
11675;SDS011;5894;42.768;23.404;2023-04-23T10:44:05;4.80;;;3.92;;
11675;SDS011;5894;42.768;23.404;2023-04-23T10:46:36;5.22;;;3.60;;
11675;SDS011;5894;42.768;23.404;2023-04-23T10:49:06;7.20;;;3.67;;
11675;SDS011;5894;42.768;23.404;2023-04-23T10:51:38;4.75;;;3.95;;
11675;SDS011;5894;42.768;23.404;2023-04-23T10:54:07;5.53;;;3.95;;
11675;SDS011;5894;42.768;23.404;2023-04-23T10:56:37;4.43;;;3.90;;
11675;SDS011;5894;42.768;23.404;2023-04-23T10:59:05;5.50;;;4.18;;
11675;SDS011;5894;42.768;23.404;2023-04-23T11:01:33;5.47;;;4.00;;
11675;SDS011;5894;42.768;23.404;2023-04-23T11:06:52;5.20;;;3.80;;
11675;SDS011;5894;42.768;23.404;2023-04-23T11:12:24;13.55;;;4.57;;
11675;SDS011;5894;42.768;23.404;2023-04-23T11:14:57;8.23;;;3.65;;
11675;SDS011;5894;42.768;23.404;2023-04-23T11:20:25;5.63;;;3.10;;
11675;SDS011;5894;42.768;23.404;2023-04-23T11:22:52;3.20;;;2.90;;
11675;SDS011;5894;42.768;23.404;2023-04-23T11:25:19;3.90;;;3.00;;
11675;SDS011;5894;42.768;23.404;2023-04-23T11:27:49;3.60;;;3.30;;
11675;SDS011;5894;42.768;23.404;2023-04-23T11:30:18;4.47;;;3.08;;
11675;SDS011;5894;42.768;23.404;2023-04-23T11:32:47;5.97;;;3.10;;
11675;SDS011;5894;42.768;23.404;2023-04-23T11:35:16;4.22;;;2.90;;
11675;SDS011;5894;42.768;23.404;2023-04-23T11:37:44;5.47;;;3.72;;
11675;SDS011;5894;42.768;23.404;2023-04-23T11:40:12;4.13;;;3.25;;
11675;SDS011;5894;42.768;23.404;2023-04-23T11:42:43;4.57;;;3.40;;
11675;SDS011;5894;42.768;23.404;2023-04-23T11:45:16;5.70;;;3.38;;
11675;SDS011;5894;42.768;23.404;2023-04-23T11:47:44;8.32;;;3.63;;
11675;SDS011;5894;42.768;23.404;2023-04-23T11:50:15;5.63;;;3.05;;
11675;SDS011;5894;42.768;23.404;2023-04-23T11:52:43;6.05;;;3.60;;
11675;SDS011;5894;42.768;23.404;2023-04-23T11:55:10;4.18;;;3.20;;
11675;SDS011;5894;42.768;23.404;2023-04-23T11:57:40;3.47;;;3.17;;
11675;SDS011;5894;42.768;23.404;2023-04-23T12:00:11;7.32;;;3.47;;
11675;SDS011;5894;42.768;23.404;2023-04-23T12:02:49;3.88;;;2.83;;
11675;SDS011;5894;42.768;23.404;2023-04-23T12:05:18;3.88;;;3.10;;
11675;SDS011;5894;42.768;23.404;2023-04-23T12:07:47;5.28;;;3.22;;
11675;SDS011;5894;42.768;23.404;2023-04-23T12:10:16;7.43;;;3.10;;
11675;SDS011;5894;42.768;23.404;2023-04-23T12:12:47;4.20;;;3.20;;
11675;SDS011;5894;42.768;23.404;2023-04-23T12:15:15;4.88;;;3.13;;
11675;SDS011;5894;42.768;23.404;2023-04-23T12:17:41;4.72;;;3.00;;
11675;SDS011;5894;42.768;23.404;2023-04-23T12:20:14;6.55;;;3.13;;
11675;SDS011;5894;42.768;23.404;2023-04-23T12:22:42;3.40;;;2.92;;
11675;SDS011;5894;42.768;23.404;2023-04-23T12:25:09;4.00;;;2.92;;
11675;SDS011;5894;42.768;23.404;2023-04-23T12:27:37;6.72;;;2.60;;
11675;SDS011;5894;42.768;23.404;2023-04-23T12:30:05;3.00;;;2.70;;
11675;SDS011;5894;42.768;23.404;2023-04-23T12:32:33;5.22;;;2.80;;
11675;SDS011;5894;42.768;23.404;2023-04-23T12:35:00;3.08;;;2.72;;
11675;SDS011;5894;42.768;23.404;2023-04-23T12:37:34;3.28;;;2.88;;
11675;SDS011;5894;42.768;23.404;2023-04-23T12:40:02;3.95;;;2.60;;
11675;SDS011;5894;42.768;23.404;2023-04-23T12:42:31;4.72;;;2.40;;
11675;SDS011;5894;42.768;23.404;2023-04-23T12:45:08;3.17;;;2.22;;
11675;SDS011;5894;42.768;23.404;2023-04-23T12:47:36;4.43;;;2.45;;
11675;SDS011;5894;42.768;23.404;2023-04-23T12:50:03;3.15;;;2.38;;
11675;SDS011;5894;42.768;23.404;2023-04-23T12:52:34;3.53;;;2.60;;
11675;SDS011;5894;42.768;23.404;2023-04-23T12:55:02;3.20;;;2.47;;
11675;SDS011;5894;42.768;23.404;2023-04-23T12:57:30;2.72;;;2.45;;
11675;SDS011;5894;42.768;23.404;2023-04-23T12:59:59;3.25;;;2.67;;
11675;SDS011;5894;42.768;23.404;2023-04-23T13:02:26;4.40;;;2.40;;
11675;SDS011;5894;42.768;23.404;2023-04-23T13:04:53;3.22;;;2.40;;
11675;SDS011;5894;42.768;23.404;2023-04-23T13:07:24;4.20;;;2.60;;
11675;SDS011;5894;42.768;23.404;2023-04-23T13:09:53;4.47;;;2.53;;
11675;SDS011;5894;42.768;23.404;2023-04-23T13:12:21;4.25;;;2.55;;
11675;SDS011;5894;42.768;23.404;2023-04-23T13:14:48;3.10;;;2.47;;
11675;SDS011;5894;42.768;23.404;2023-04-23T13:17:15;2.88;;;2.50;;
11675;SDS011;5894;42.768;23.404;2023-04-23T13:19:42;2.75;;;2.30;;
11675;SDS011;5894;42.768;23.404;2023-04-23T13:22:09;3.08;;;2.50;;
11675;SDS011;5894;42.768;23.404;2023-04-23T13:24:35;3.63;;;2.67;;
11675;SDS011;5894;42.768;23.404;2023-04-23T13:27:04;2.83;;;2.60;;
11675;SDS011;5894;42.768;23.404;2023-04-23T13:29:30;17.58;;;3.42;;
11675;SDS011;5894;42.768;23.404;2023-04-23T13:31:57;8.60;;;2.75;;
11675;SDS011;5894;42.768;23.404;2023-04-23T13:34:24;8.68;;;3.35;;
11675;SDS011;5894;42.768;23.404;2023-04-23T13:36:51;7.07;;;2.72;;
11675;SDS011;5894;42.768;23.404;2023-04-23T13:39:18;9.10;;;3.05;;
11675;SDS011;5894;42.768;23.404;2023-04-23T13:41:45;3.40;;;2.58;;
11675;SDS011;5894;42.768;23.404;2023-04-23T13:44:17;3.78;;;2.70;;
11675;SDS011;5894;42.768;23.404;2023-04-23T13:46:43;4.45;;;2.63;;
11675;SDS011;5894;42.768;23.404;2023-04-23T13:49:10;3.85;;;2.70;;
11675;SDS011;5894;42.768;23.404;2023-04-23T13:51:37;5.35;;;2.60;;
11675;SDS011;5894;42.768;23.404;2023-04-23T13:54:04;4.95;;;2.67;;
11675;SDS011;5894;42.768;23.404;2023-04-23T13:56:31;3.42;;;2.67;;
11675;SDS011;5894;42.768;23.404;2023-04-23T13:58:58;7.88;;;2.40;;
11675;SDS011;5894;42.768;23.404;2023-04-23T14:01:29;3.92;;;2.35;;
11675;SDS011;5894;42.768;23.404;2023-04-23T14:03:56;4.78;;;2.75;;
11675;SDS011;5894;42.768;23.404;2023-04-23T14:06:23;3.95;;;2.90;;
11675;SDS011;5894;42.768;23.404;2023-04-23T14:08:50;4.47;;;3.13;;
11675;SDS011;5894;42.768;23.404;2023-04-23T14:11:17;3.97;;;2.47;;
11675;SDS011;5894;42.768;23.404;2023-04-23T14:13:44;3.00;;;2.45;;
11675;SDS011;5894;42.768;23.404;2023-04-23T14:16:11;2.92;;;2.60;;
11675;SDS011;5894;42.768;23.404;2023-04-23T14:18:39;3.50;;;2.20;;
11675;SDS011;5894;42.768;23.404;2023-04-23T14:21:06;5.35;;;2.60;;
11675;SDS011;5894;42.768;23.404;2023-04-23T14:23:43;3.65;;;2.25;;
11675;SDS011;5894;42.768;23.404;2023-04-23T14:26:19;2.70;;;2.30;;
11675;SDS011;5894;42.768;23.404;2023-04-23T14:28:49;4.13;;;2.15;;
11675;SDS011;5894;42.768;23.404;2023-04-23T14:31:17;3.13;;;2.60;;
11675;SDS011;5894;42.768;23.404;2023-04-23T14:33:46;2.30;;;2.10;;
11675;SDS011;5894;42.768;23.404;2023-04-23T14:36:12;2.90;;;2.35;;
11675;SDS011;5894;42.768;23.404;2023-04-23T14:38:39;2.80;;;2.20;;
11675;SDS011;5894;42.768;23.404;2023-04-23T14:41:06;2.42;;;2.22;;
11675;SDS011;5894;42.768;23.404;2023-04-23T14:43:33;9.70;;;2.95;;
11675;SDS011;5894;42.768;23.404;2023-04-23T14:46:01;2.60;;;2.40;;
11675;SDS011;5894;42.768;23.404;2023-04-23T14:48:28;2.80;;;2.50;;
11675;SDS011;5894;42.768;23.404;2023-04-23T14:50:57;4.53;;;2.45;;
11675;SDS011;5894;42.768;23.404;2023-04-23T14:53:24;5.25;;;3.15;;
11675;SDS011;5894;42.768;23.404;2023-04-23T14:55:51;4.38;;;2.95;;
11675;SDS011;5894;42.768;23.404;2023-04-23T14:58:18;7.43;;;3.10;;